Time;durP1;ratioP1;P1;durP2;ratioP2;P2;SDS_P1;SDS_P2;PMS_P1;PMS_P2;Temp;Humidity;BMP_temperature;BMP_pressure;BME280_temperature;BME280_humidity;BME280_pressure;Samples;Min_cycle;Max_cycle;Signal;HPM_P1;HPM_P2
2023/05/11 00:01:17;;;;;;;14.70;11.10;;;13.30;99.90;;;;;;5088435;28;20108;-46
2023/05/11 00:03:42;;;;;;;17.67;12.13;;;13.30;99.90;;;;;;5088742;28;20385;-46
2023/05/11 00:06:08;;;;;;;14.82;11.23;;;13.30;99.90;;;;;;5088995;28;20111;-46
2023/05/11 00:08:34;;;;;;;17.02;11.45;;;13.30;99.90;;;;;;5087383;28;20028;-47
2023/05/11 00:11:00;;;;;;;18.48;12.48;;;13.20;99.90;;;;;;5086892;28;20031;-46
2023/05/11 00:13:26;;;;;;;18.15;12.32;;;13.20;99.90;;;;;;5088310;28;20032;-47
2023/05/11 00:15:52;;;;;;;18.00;12.57;;;13.20;99.90;;;;;;5088566;28;20625;-46
2023/05/11 00:18:17;;;;;;;15.63;11.13;;;13.20;99.90;;;;;;5088234;28;20059;-48
2023/05/11 00:20:43;;;;;;;17.30;12.13;;;13.20;99.90;;;;;;5089225;28;20024;-47
2023/05/11 00:23:08;;;;;;;25.35;15.30;;;13.20;99.90;;;;;;5093091;28;20024;-47
2023/05/11 00:25:34;;;;;;;23.73;14.38;;;13.20;99.90;;;;;;5093143;28;20024;-46
2023/05/11 00:27:59;;;;;;;21.05;14.52;;;13.20;99.90;;;;;;5092897;28;20541;-47
2023/05/11 00:30:25;;;;;;;19.42;13.68;;;13.20;99.90;;;;;;5092563;28;20085;-47
2023/05/11 00:32:50;;;;;;;22.73;14.05;;;13.20;99.90;;;;;;5092386;28;20031;-46
2023/05/11 00:35:16;;;;;;;14.65;10.77;;;13.20;99.90;;;;;;5093211;28;20095;-47
2023/05/11 00:37:42;;;;;;;19.20;13.05;;;13.20;99.90;;;;;;5093033;28;20032;-46
2023/05/11 00:40:07;;;;;;;14.77;10.13;;;13.10;99.90;;;;;;5092791;28;20035;-47
2023/05/11 00:42:34;;;;;;;15.55;10.77;;;13.10;99.90;;;;;;5092155;28;20311;-47
2023/05/11 00:45:00;;;;;;;13.63;10.57;;;13.10;99.90;;;;;;5091195;28;20024;-46
2023/05/11 00:47:26;;;;;;;16.60;11.27;;;13.10;99.90;;;;;;5092073;28;20035;-46
2023/05/11 00:49:52;;;;;;;15.02;10.55;;;13.10;99.90;;;;;;5092675;28;20055;-47
2023/05/11 00:52:20;;;;;;;14.60;9.70;;;13.10;99.90;;;;;;5092263;28;20096;-46
2023/05/11 00:54:47;;;;;;;14.18;10.52;;;13.10;99.90;;;;;;5092607;28;20028;-49
2023/05/11 00:57:13;;;;;;;11.60;8.93;;;13.00;99.90;;;;;;5092193;28;20054;-46
2023/05/11 00:59:39;;;;;;;12.65;8.93;;;13.00;99.90;;;;;;5092626;28;20028;-48
2023/05/11 01:02:05;;;;;;;12.35;9.10;;;12.90;99.90;;;;;;5091478;28;20020;-47
2023/05/11 01:04:31;;;;;;;9.23;7.63;;;12.90;99.90;;;;;;5092524;28;20030;-47
2023/05/11 01:07:10;;;;;;;10.35;8.38;;;12.90;99.90;;;;;;5091195;28;20020;-46
2023/05/11 01:09:57;;;;;;;12.45;8.75;;;12.90;99.90;;;;;;5091279;28;20013;-46
2023/05/11 01:12:46;;;;;;;10.45;8.13;;;12.80;99.90;;;;;;5091879;28;20740;-46
2023/05/11 01:15:26;;;;;;;13.45;9.10;;;12.80;99.90;;;;;;5092079;28;20028;-46
2023/05/11 01:18:11;;;;;;;13.73;10.30;;;12.80;99.90;;;;;;5084175;28;20031;-46
2023/05/11 01:20:38;;;;;;;17.88;11.55;;;12.80;99.90;;;;;;5091787;28;20017;-46
2023/05/11 01:23:06;;;;;;;12.35;9.52;;;12.80;99.90;;;;;;5092037;28;20020;-46
2023/05/11 01:25:49;;;;;;;12.88;8.52;;;12.80;99.90;;;;;;5092150;28;20028;-48
2023/05/11 01:28:27;;;;;;;15.18;11.13;;;12.80;99.90;;;;;;5091843;28;20016;-46
2023/05/11 01:31:09;;;;;;;16.63;11.40;;;12.70;99.90;;;;;;5091320;28;20028;-46
2023/05/11 01:33:38;;;;;;;14.75;10.00;;;12.70;99.90;;;;;;5091749;28;20016;-45
2023/05/11 01:36:07;;;;;;;15.35;11.07;;;12.70;99.90;;;;;;5091617;28;20362;-45
2023/05/11 01:38:36;;;;;;;12.30;9.45;;;12.70;99.90;;;;;;5091611;28;20542;-47
2023/05/11 01:41:10;;;;;;;13.77;9.70;;;12.70;99.90;;;;;;5090822;28;20070;-49
2023/05/11 01:43:38;;;;;;;15.13;10.35;;;12.70;99.90;;;;;;5090443;28;20016;-46
2023/05/11 01:46:06;;;;;;;14.60;10.32;;;12.70;99.90;;;;;;5091233;28;20020;-48
2023/05/11 01:48:36;;;;;;;14.52;9.38;;;12.70;99.90;;;;;;5106596;28;20512;-49
2023/05/11 01:51:03;;;;;;;14.13;9.93;;;12.70;99.90;;;;;;5091026;28;20035;-44
2023/05/11 01:53:33;;;;;;;15.82;11.13;;;12.70;99.90;;;;;;5090192;28;20041;-45
2023/05/11 01:56:00;;;;;;;14.95;10.68;;;12.80;99.90;;;;;;5091042;28;20414;-44
2023/05/11 01:58:29;;;;;;;15.57;10.52;;;12.70;99.90;;;;;;5091182;28;20020;-47
2023/05/11 02:00:55;;;;;;;15.70;11.32;;;12.70;99.90;;;;;;5090592;28;20020;-46
2023/05/11 02:03:22;;;;;;;14.45;10.23;;;12.70;99.90;;;;;;5091031;28;20016;-47
2023/05/11 02:05:49;;;;;;;15.13;9.73;;;12.70;99.90;;;;;;5091328;28;20363;-46
2023/05/11 02:08:16;;;;;;;14.93;9.68;;;12.70;99.90;;;;;;5091194;28;20028;-47
2023/05/11 02:10:44;;;;;;;15.77;10.27;;;12.70;99.90;;;;;;5089525;28;20024;-49
2023/05/11 02:13:11;;;;;;;15.15;9.85;;;12.70;99.90;;;;;;5090928;28;20020;-48
2023/05/11 02:15:40;;;;;;;13.15;9.85;;;12.70;99.90;;;;;;5090637;28;20452;-49
2023/05/11 02:18:08;;;;;;;13.77;9.90;;;12.70;99.90;;;;;;5090530;28;20063;-46
2023/05/11 02:20:35;;;;;;;13.38;9.13;;;12.70;99.90;;;;;;5090467;28;20024;-46
2023/05/11 02:23:02;;;;;;;15.48;9.73;;;12.70;99.90;;;;;;5089032;28;20032;-49
2023/05/11 02:25:29;;;;;;;17.50;11.30;;;12.70;99.90;;;;;;5091034;28;20073;-46
2023/05/11 02:27:54;;;;;;;15.18;9.77;;;12.70;99.90;;;;;;5090521;28;20016;-46
2023/05/11 02:30:20;;;;;;;13.73;10.10;;;12.70;99.90;;;;;;5090545;28;20026;-47
2023/05/11 02:32:50;;;;;;;13.05;9.40;;;12.70;99.90;;;;;;5089884;28;20563;-46
2023/05/11 02:35:30;;;;;;;11.70;9.17;;;12.70;99.90;;;;;;5090225;28;20034;-43
2023/05/11 02:37:58;;;;;;;13.60;10.15;;;12.70;99.90;;;;;;5089215;28;20561;-45
2023/05/11 02:40:35;;;;;;;12.57;9.43;;;12.70;99.90;;;;;;5088702;28;20113;-44
2023/05/11 02:43:24;;;;;;;12.38;9.43;;;12.70;99.90;;;;;;5089734;28;20141;-44
2023/05/11 02:45:52;;;;;;;16.00;10.95;;;12.70;99.90;;;;;;5089952;28;20020;-45
2023/05/11 02:48:26;;;;;;;15.85;10.50;;;12.80;99.90;;;;;;5089678;28;20034;-44
2023/05/11 02:50:54;;;;;;;14.57;10.70;;;12.80;99.90;;;;;;5088089;28;20038;-44
2023/05/11 02:53:21;;;;;;;16.15;11.50;;;12.90;99.90;;;;;;5089968;28;20023;-44
2023/05/11 02:55:49;;;;;;;15.13;10.02;;;12.80;99.90;;;;;;5088829;28;20482;-46
2023/05/11 02:58:15;;;;;;;15.40;10.18;;;12.90;99.90;;;;;;5090052;28;20024;-46
2023/05/11 03:00:40;;;;;;;14.07;10.90;;;12.90;99.90;;;;;;5104119;28;20908;-48
2023/05/11 03:03:06;;;;;;;11.70;9.27;;;12.90;99.90;;;;;;5086850;28;20020;-46
2023/05/11 03:05:32;;;;;;;13.30;10.05;;;12.90;99.90;;;;;;5089923;28;20419;-48
2023/05/11 03:07:58;;;;;;;16.10;10.32;;;12.90;99.90;;;;;;5089117;28;20038;-46
2023/05/11 03:10:28;;;;;;;14.88;9.93;;;12.90;99.90;;;;;;5089107;28;20367;-48
2023/05/11 03:12:54;;;;;;;13.82;10.05;;;12.90;99.90;;;;;;5088851;28;20188;-46
2023/05/11 03:15:21;;;;;;;14.25;10.70;;;12.90;99.90;;;;;;5089479;28;20024;-47
2023/05/11 03:17:48;;;;;;;16.02;11.07;;;12.90;99.90;;;;;;5089399;28;20103;-45
2023/05/11 03:20:15;;;;;;;12.80;10.07;;;12.90;99.90;;;;;;5089382;28;20461;-46
2023/05/11 03:22:42;;;;;;;12.57;10.60;;;12.90;99.90;;;;;;5087651;28;20032;-45
2023/05/11 03:25:10;;;;;;;17.38;12.48;;;12.90;99.90;;;;;;5089283;28;20069;-46
2023/05/11 03:27:37;;;;;;;24.60;17.88;;;12.90;99.90;;;;;;5089042;28;20540;-46
2023/05/11 03:30:06;;;;;;;21.48;16.17;;;13.00;99.90;;;;;;5087968;28;20544;-47
2023/05/11 03:32:34;;;;;;;20.15;14.10;;;12.90;99.90;;;;;;5085459;28;20051;-46
2023/05/11 03:35:00;;;;;;;16.73;12.50;;;13.00;99.90;;;;;;5088902;28;20122;-46
2023/05/11 03:37:27;;;;;;;16.85;12.35;;;13.00;99.90;;;;;;5088756;28;20024;-46
2023/05/11 03:39:56;;;;;;;19.52;13.95;;;13.00;99.90;;;;;;5087142;28;20073;-44
2023/05/11 03:42:25;;;;;;;16.77;12.63;;;13.00;99.90;;;;;;5086341;28;20024;-44
2023/05/11 03:44:54;;;;;;;15.60;12.07;;;13.00;99.90;;;;;;5083275;28;20056;-45
2023/05/11 03:47:21;;;;;;;17.45;12.98;;;13.00;99.90;;;;;;5086211;28;20069;-44
2023/05/11 03:49:48;;;;;;;17.33;11.23;;;13.00;99.90;;;;;;5087891;28;20043;-45
2023/05/11 03:52:15;;;;;;;16.98;12.40;;;13.00;99.90;;;;;;5087403;28;20028;-47
2023/05/11 03:54:42;;;;;;;16.17;11.98;;;13.00;99.90;;;;;;5088366;28;20020;-46
2023/05/11 03:57:10;;;;;;;17.17;12.55;;;13.10;99.90;;;;;;5088508;28;20032;-44
2023/05/11 03:59:38;;;;;;;19.60;13.27;;;13.00;99.90;;;;;;5088847;28;20028;-45
2023/05/11 04:02:03;;;;;;;16.75;11.43;;;13.00;99.90;;;;;;5088377;28;20421;-45
2023/05/11 04:04:30;;;;;;;18.08;12.65;;;13.10;99.90;;;;;;5088466;28;20134;-45
2023/05/11 04:06:56;;;;;;;18.00;12.20;;;13.10;99.90;;;;;;5088764;28;20099;-44
2023/05/11 04:09:22;;;;;;;15.27;11.25;;;13.10;99.90;;;;;;5089058;28;20362;-44
2023/05/11 04:11:48;;;;;;;20.33;12.93;;;13.10;99.90;;;;;;5088892;28;20441;-45
2023/05/11 04:14:13;;;;;;;19.77;13.00;;;13.10;99.90;;;;;;5089404;28;20111;-45
2023/05/11 04:16:39;;;;;;;18.48;13.15;;;13.10;99.90;;;;;;5089118;28;20424;-45
2023/05/11 04:19:05;;;;;;;18.60;13.02;;;13.10;99.90;;;;;;5088523;28;20508;-46
2023/05/11 04:21:31;;;;;;;18.38;12.32;;;13.10;99.90;;;;;;5088089;28;20031;-45
2023/05/11 04:23:57;;;;;;;20.00;14.13;;;13.10;99.90;;;;;;5087405;28;20024;-44
2023/05/11 04:26:23;;;;;;;18.67;12.55;;;13.10;99.90;;;;;;5088598;28;20020;-45
2023/05/11 04:28:48;;;;;;;20.85;13.90;;;13.20;99.90;;;;;;5088663;28;20026;-46
2023/05/11 04:31:14;;;;;;;24.60;14.32;;;13.20;99.90;;;;;;5088029;28;20031;-44
2023/05/11 04:33:40;;;;;;;19.00;13.38;;;13.20;99.90;;;;;;5088096;28;20024;-45
2023/05/11 04:36:06;;;;;;;19.98;13.82;;;13.20;99.90;;;;;;5087174;28;20073;-44
2023/05/11 04:38:31;;;;;;;21.10;14.63;;;13.20;99.90;;;;;;5087329;28;20032;-44
2023/05/11 04:41:01;;;;;;;21.90;15.00;;;13.20;99.90;;;;;;5088269;28;20059;-44
2023/05/11 04:43:27;;;;;;;19.08;13.77;;;13.20;99.90;;;;;;5087657;28;20073;-44
2023/05/11 04:45:52;;;;;;;23.85;16.10;;;13.20;99.90;;;;;;5089080;28;20024;-44
2023/05/11 04:48:18;;;;;;;17.10;13.18;;;13.20;99.90;;;;;;5088555;28;20390;-44
2023/05/11 04:50:43;;;;;;;22.40;15.88;;;13.20;99.90;;;;;;5086732;28;20478;-44
2023/05/11 04:53:09;;;;;;;21.13;14.75;;;13.20;99.90;;;;;;5088673;28;20020;-45
2023/05/11 04:55:35;;;;;;;25.23;16.20;;;13.20;99.90;;;;;;5088672;28;20050;-44
2023/05/11 04:58:00;;;;;;;24.13;16.77;;;13.20;99.90;;;;;;5088262;28;20032;-44
2023/05/11 05:00:26;;;;;;;21.00;15.82;;;13.20;99.90;;;;;;5088350;28;20058;-45
2023/05/11 05:02:51;;;;;;;22.15;15.55;;;13.20;99.90;;;;;;5088031;28;20032;-44
2023/05/11 05:05:17;;;;;;;24.85;16.85;;;13.20;99.90;;;;;;5088725;28;20314;-45
2023/05/11 05:07:43;;;;;;;25.90;16.13;;;13.20;99.90;;;;;;5089300;28;20020;-44
2023/05/11 05:10:10;;;;;;;23.05;15.80;;;13.30;99.90;;;;;;5092178;28;20046;-44
2023/05/11 05:12:36;;;;;;;24.25;16.67;;;13.30;99.90;;;;;;5090775;28;20020;-45
2023/05/11 05:15:02;;;;;;;26.80;18.45;;;13.30;99.90;;;;;;5091836;28;20031;-46
2023/05/11 05:17:28;;;;;;;26.00;18.80;;;13.30;99.90;;;;;;5091593;28;20027;-44
2023/05/11 05:19:54;;;;;;;32.60;21.58;;;13.40;99.90;;;;;;5092043;28;20209;-44
2023/05/11 05:22:20;;;;;;;28.35;19.98;;;13.40;99.90;;;;;;5091345;28;20240;-44
2023/05/11 05:24:45;;;;;;;28.50;19.73;;;13.40;99.90;;;;;;5092025;28;20028;-44
2023/05/11 05:27:11;;;;;;;21.90;16.65;;;13.40;99.90;;;;;;5091901;28;20025;-45
2023/05/11 05:29:36;;;;;;;27.10;17.92;;;13.40;99.90;;;;;;5091767;28;20238;-45
2023/05/11 05:32:03;;;;;;;24.92;18.20;;;13.40;99.90;;;;;;5091631;28;20087;-44
2023/05/11 05:34:28;;;;;;;23.60;17.05;;;13.40;99.90;;;;;;5091634;28;20028;-46
2023/05/11 05:36:54;;;;;;;24.30;18.30;;;13.40;99.90;;;;;;5091641;28;20386;-40
2023/05/11 05:39:19;;;;;;;25.52;18.70;;;13.40;99.90;;;;;;5091511;28;20028;-39
2023/05/11 05:41:45;;;;;;;31.65;20.60;;;13.50;99.90;;;;;;5090496;28;20162;-39
2023/05/11 05:44:10;;;;;;;24.92;19.13;;;13.50;99.90;;;;;;5091413;28;20024;-39
2023/05/11 05:46:36;;;;;;;24.75;17.13;;;13.50;99.90;;;;;;5091382;28;20031;-39
2023/05/11 05:49:01;;;;;;;24.63;17.13;;;13.50;99.90;;;;;;5090048;28;20085;-39
2023/05/11 05:51:27;;;;;;;22.75;17.40;;;13.50;99.90;;;;;;5090698;28;20052;-39
2023/05/11 05:53:52;;;;;;;21.73;15.88;;;13.60;99.90;;;;;;5091044;28;20106;-39
2023/05/11 05:56:18;;;;;;;23.85;17.63;;;13.60;99.90;;;;;;5091067;28;20210;-39
2023/05/11 05:58:43;;;;;;;26.38;17.73;;;13.60;99.90;;;;;;5090752;28;20028;-39
2023/05/11 06:01:09;;;;;;;23.95;17.08;;;13.60;99.90;;;;;;5090681;28;20473;-39
2023/05/11 06:03:34;;;;;;;24.23;17.02;;;13.60;99.90;;;;;;5090432;28;20107;-39
2023/05/11 06:06:03;;;;;;;22.73;15.63;;;13.60;99.90;;;;;;5091060;28;20119;-39
2023/05/11 06:08:28;;;;;;;26.65;19.25;;;13.60;99.90;;;;;;5090954;28;20027;-39
2023/05/11 06:10:54;;;;;;;24.17;17.55;;;13.70;99.90;;;;;;5090906;28;20016;-40
2023/05/11 06:13:19;;;;;;;24.42;17.45;;;13.60;99.90;;;;;;5090753;28;20016;-40
2023/05/11 06:15:45;;;;;;;23.80;18.23;;;13.70;99.90;;;;;;5090565;28;20470;-39
2023/05/11 06:18:10;;;;;;;21.80;16.42;;;13.70;99.90;;;;;;5089523;28;20449;-39
2023/05/11 06:20:36;;;;;;;22.58;17.70;;;13.70;99.90;;;;;;5090557;28;20046;-39
2023/05/11 06:23:01;;;;;;;22.63;16.83;;;13.60;99.90;;;;;;5090835;28;20386;-40
2023/05/11 06:25:27;;;;;;;24.98;19.20;;;13.70;99.90;;;;;;5090740;28;20030;-39
2023/05/11 06:27:52;;;;;;;22.88;17.80;;;13.70;99.90;;;;;;5090180;28;20024;-39
2023/05/11 06:30:18;;;;;;;20.38;15.48;;;13.70;99.90;;;;;;5090567;28;20179;-39
2023/05/11 06:32:44;;;;;;;22.10;16.73;;;13.70;99.90;;;;;;5089223;28;20032;-40
2023/05/11 06:35:09;;;;;;;24.23;18.05;;;13.70;99.90;;;;;;5089561;28;20262;-39
2023/05/11 06:37:35;;;;;;;23.63;17.70;;;13.80;99.90;;;;;;5089439;28;20069;-39
2023/05/11 06:40:01;;;;;;;24.08;18.13;;;13.80;99.90;;;;;;5086953;28;20059;-39
2023/05/11 06:42:26;;;;;;;19.10;15.65;;;13.80;99.90;;;;;;5088979;28;20523;-39
2023/05/11 06:44:52;;;;;;;21.10;16.23;;;13.80;99.90;;;;;;5088343;28;20028;-39
2023/05/11 06:47:17;;;;;;;21.92;14.85;;;13.80;99.90;;;;;;5090336;28;20470;-39
2023/05/11 06:49:43;;;;;;;21.27;16.30;;;13.80;99.90;;;;;;5090232;28;20032;-39
2023/05/11 06:52:09;;;;;;;21.25;15.85;;;13.80;99.90;;;;;;5089722;28;20111;-39
2023/05/11 06:54:35;;;;;;;25.85;19.25;;;13.80;99.90;;;;;;5090100;28;20397;-39
2023/05/11 06:57:02;;;;;;;23.77;18.17;;;13.80;99.90;;;;;;5090047;28;20140;-39
2023/05/11 06:59:28;;;;;;;21.10;15.52;;;13.80;99.90;;;;;;5090091;28;20024;-39
2023/05/11 07:01:53;;;;;;;20.50;15.82;;;13.80;99.90;;;;;;5088633;28;20036;-39
2023/05/11 07:04:19;;;;;;;18.15;15.15;;;13.80;99.90;;;;;;5089252;28;20031;-39
2023/05/11 07:06:45;;;;;;;21.77;15.73;;;13.80;99.90;;;;;;5089676;28;20345;-39
2023/05/11 07:09:10;;;;;;;19.83;15.18;;;13.90;99.90;;;;;;5089575;28;20024;-39
2023/05/11 07:11:36;;;;;;;18.67;13.55;;;14.00;99.90;;;;;;5089696;28;20027;-39
2023/05/11 07:14:02;;;;;;;22.02;16.30;;;14.00;99.90;;;;;;5089498;28;20019;-40
2023/05/11 07:16:27;;;;;;;24.27;17.50;;;14.10;99.90;;;;;;5088564;28;20039;-39
2023/05/11 07:18:53;;;;;;;19.25;15.27;;;14.20;99.90;;;;;;5089134;28;20061;-39
2023/05/11 07:21:20;;;;;;;30.05;20.02;;;14.30;99.90;;;;;;5088779;28;20016;-41
2023/05/11 07:23:46;;;;;;;23.63;17.17;;;14.30;99.90;;;;;;5089584;28;20028;-40
2023/05/11 07:26:12;;;;;;;22.05;17.45;;;14.30;99.90;;;;;;5088402;28;20103;-40
2023/05/11 07:28:38;;;;;;;24.30;17.85;;;14.40;99.90;;;;;;5088454;28;20027;-41
2023/05/11 07:31:04;;;;;;;20.92;16.10;;;14.40;99.90;;;;;;5087893;28;20066;-40
2023/05/11 07:33:29;;;;;;;22.70;16.40;;;14.40;99.90;;;;;;5088820;28;20028;-41
2023/05/11 07:35:55;;;;;;;19.90;15.68;;;14.50;99.90;;;;;;5086839;28;20031;-40
2023/05/11 07:38:21;;;;;;;20.30;15.43;;;14.50;99.90;;;;;;5089500;28;20016;-40
2023/05/11 07:40:46;;;;;;;18.95;14.77;;;14.50;99.90;;;;;;5088793;28;20413;-40
2023/05/11 07:43:12;;;;;;;20.90;16.27;;;14.50;99.90;;;;;;5089044;28;20020;-39
2023/05/11 07:45:38;;;;;;;20.75;15.93;;;14.50;99.90;;;;;;5088870;28;20439;-39
2023/05/11 07:48:04;;;;;;;25.73;17.63;;;14.50;99.90;;;;;;5088997;28;20046;-39
2023/05/11 07:50:30;;;;;;;19.73;15.38;;;14.50;99.90;;;;;;5088962;28;20132;-39
2023/05/11 07:52:55;;;;;;;19.98;15.25;;;14.50;99.90;;;;;;5088827;28;20458;-39
2023/05/11 07:55:23;;;;;;;22.35;16.35;;;14.50;99.90;;;;;;5073200;28;20040;-39
2023/05/11 07:57:50;;;;;;;26.65;18.73;;;14.50;99.90;;;;;;5069026;28;20041;-40
2023/05/11 08:00:16;;;;;;;26.05;17.98;;;14.50;99.90;;;;;;5068803;28;20016;-39
2023/05/11 08:02:42;;;;;;;24.50;17.73;;;14.50;99.90;;;;;;5068269;28;20116;-39
2023/05/11 08:05:08;;;;;;;21.55;16.13;;;14.70;99.90;;;;;;5068837;28;20091;-40
2023/05/11 08:07:33;;;;;;;22.88;17.05;;;14.80;99.90;;;;;;5050934;28;20429;-39
2023/05/11 08:09:59;;;;;;;25.98;18.23;;;14.90;99.90;;;;;;5050821;28;20107;-40
2023/05/11 08:12:24;;;;;;;26.48;18.65;;;14.90;99.90;;;;;;5068256;28;20020;-39
2023/05/11 08:14:50;;;;;;;24.25;18.42;;;15.00;99.90;;;;;;5068341;28;20031;-40
2023/05/11 08:17:15;;;;;;;23.90;17.48;;;15.10;99.90;;;;;;5068609;28;20063;-39
2023/05/11 08:19:41;;;;;;;20.33;16.27;;;15.20;99.90;;;;;;5068474;28;20397;-39
2023/05/11 08:22:06;;;;;;;22.25;15.00;;;15.20;99.90;;;;;;5067924;28;20025;-39
2023/05/11 08:24:32;;;;;;;22.13;16.05;;;15.20;99.90;;;;;;5068824;28;20020;-39
2023/05/11 08:26:57;;;;;;;22.27;16.77;;;15.30;99.90;;;;;;5068475;28;20016;-40
2023/05/11 08:29:26;;;;;;;20.20;15.25;;;15.30;99.90;;;;;;5068787;28;20021;-40
2023/05/11 08:31:52;;;;;;;24.95;17.70;;;15.40;99.90;;;;;;5068207;28;20479;-39
2023/05/11 08:34:17;;;;;;;21.80;16.38;;;15.40;99.90;;;;;;5050225;28;20032;-39
2023/05/11 08:36:43;;;;;;;22.30;16.63;;;15.50;99.90;;;;;;5068307;28;20028;-39
2023/05/11 08:39:09;;;;;;;25.35;18.27;;;15.50;99.90;;;;;;5068507;28;20047;-40
2023/05/11 08:41:34;;;;;;;20.27;14.95;;;15.60;99.90;;;;;;5050175;28;20020;-39
2023/05/11 08:44:01;;;;;;;21.83;16.70;;;15.70;99.90;;;;;;5077580;28;20023;-39
2023/05/11 08:46:29;;;;;;;18.17;14.27;;;15.80;99.90;;;;;;5064912;28;20016;-40
2023/05/11 08:48:56;;;;;;;16.95;14.23;;;16.00;99.90;;;;;;5071499;28;20030;-40
2023/05/11 08:51:22;;;;;;;18.77;14.40;;;16.10;99.90;;;;;;5071505;28;20027;-40
2023/05/11 08:53:48;;;;;;;23.83;16.67;;;16.20;99.90;;;;;;5072086;28;20096;-40
2023/05/11 08:56:15;;;;;;;21.02;15.18;;;16.20;99.90;;;;;;5054233;28;20020;-40
2023/05/11 08:58:41;;;;;;;19.90;15.25;;;16.40;99.90;;;;;;5071778;28;20044;-39
2023/05/11 09:01:09;;;;;;;19.63;14.15;;;16.40;99.90;;;;;;5071381;28;20476;-40
2023/05/11 09:03:36;;;;;;;18.58;14.95;;;16.50;99.90;;;;;;5071953;28;20576;-40
2023/05/11 09:06:06;;;;;;;18.40;14.38;;;16.50;99.90;;;;;;5071912;28;20048;-39
2023/05/11 09:08:35;;;;;;;19.52;16.02;;;16.60;99.90;;;;;;5071685;28;20024;-40
2023/05/11 09:11:00;;;;;;;19.98;16.30;;;16.70;99.90;;;;;;5071147;28;20028;-39
2023/05/11 09:13:26;;;;;;;16.13;13.95;;;16.60;99.90;;;;;;5071613;28;20027;-39
2023/05/11 09:15:52;;;;;;;18.45;15.27;;;16.50;99.90;;;;;;5071812;28;20454;-39
2023/05/11 09:18:18;;;;;;;19.83;14.77;;;16.50;99.90;;;;;;5071902;28;20029;-40
2023/05/11 09:20:43;;;;;;;16.10;13.20;;;16.50;99.90;;;;;;5071587;28;20104;-40
2023/05/11 09:23:09;;;;;;;17.05;14.15;;;16.40;99.90;;;;;;5053704;28;20150;-40
2023/05/11 09:25:38;;;;;;;15.15;12.18;;;16.50;99.90;;;;;;5071758;28;20024;-39
2023/05/11 09:28:04;;;;;;;18.48;14.13;;;16.60;99.90;;;;;;5071535;28;20445;-40
2023/05/11 09:30:29;;;;;;;16.92;13.52;;;16.80;99.90;;;;;;5060919;28;20079;-40
2023/05/11 09:32:56;;;;;;;20.02;15.07;;;17.10;99.90;;;;;;5070635;28;20032;-40
2023/05/11 09:35:33;;;;;;;18.13;14.05;;;17.40;99.90;;;;;;5071458;28;20540;-40
2023/05/11 09:38:09;;;;;;;18.35;15.60;;;17.80;99.90;;;;;;5071309;28;20017;-40
2023/05/11 09:40:53;;;;;;;15.65;12.95;;;18.10;99.90;;;;;;5071269;28;20512;-40
2023/05/11 09:43:27;;;;;;;17.88;14.68;;;18.30;99.90;;;;;;5071148;28;20028;-40
2023/05/11 09:46:00;;;;;;;19.83;14.85;;;18.50;99.90;;;;;;5071431;28;20031;-40
2023/05/11 09:48:31;;;;;;;15.75;13.18;;;18.40;99.90;;;;;;5080906;28;20033;-40
2023/05/11 09:51:03;;;;;;;;;;;18.50;99.90;;;;;;5090959;28;20385;-41
2023/05/11 09:53:37;;;;;;;15.60;13.23;;;18.60;99.90;;;;;;5089908;28;19916;-41
2023/05/11 09:56:03;;;;;;;17.25;14.52;;;18.60;99.90;;;;;;5091262;28;20153;-41
2023/05/11 09:58:51;;;;;;;15.57;12.73;;;18.60;99.90;;;;;;5089827;28;20111;-40
2023/05/11 10:01:28;;;;;;;15.32;11.57;;;18.40;99.90;;;;;;5090763;28;20443;-40
2023/05/11 10:03:53;;;;;;;14.00;12.15;;;18.40;99.90;;;;;;5091016;28;20025;-41
2023/05/11 10:06:19;;;;;;;15.05;12.23;;;18.30;99.90;;;;;;5091097;28;20561;-40
2023/05/11 10:08:45;;;;;;;13.45;11.55;;;18.20;99.90;;;;;;5090502;28;20466;-41
2023/05/11 10:11:11;;;;;;;16.25;13.52;;;18.20;99.90;;;;;;5090135;28;20016;-40
2023/05/11 10:13:38;;;;;;;13.52;11.93;;;18.60;99.90;;;;;;5090285;28;20405;-41
2023/05/11 10:16:04;;;;;;;14.40;12.80;;;18.80;99.90;;;;;;5090721;28;20024;-40
2023/05/11 10:18:33;;;;;;;15.15;13.48;;;19.00;99.90;;;;;;5090618;28;20050;-40
2023/05/11 10:20:59;;;;;;;16.20;13.15;;;19.20;99.90;;;;;;5090101;28;20089;-40
2023/05/11 10:23:25;;;;;;;14.60;12.50;;;19.40;99.90;;;;;;5090447;28;20024;-40
2023/05/11 10:25:53;;;;;;;14.48;12.77;;;19.30;99.90;;;;;;5090305;28;20129;-40
2023/05/11 10:28:21;;;;;;;14.15;12.65;;;19.20;99.90;;;;;;5090420;28;20028;-40
2023/05/11 10:30:46;;;;;;;16.80;14.45;;;19.10;99.90;;;;;;5089547;28;20009;-40
2023/05/11 10:33:13;;;;;;;15.15;13.52;;;19.00;99.90;;;;;;5086921;28;20024;-42
2023/05/11 10:35:39;;;;;;;12.80;11.50;;;19.10;99.90;;;;;;5089239;28;20090;-40
2023/05/11 10:38:06;;;;;;;14.02;12.02;;;19.40;99.90;;;;;;5077873;28;20023;-41
2023/05/11 10:40:39;;;;;;;15.95;10.75;;;19.90;99.90;;;;;;5089005;28;20077;-40
2023/05/11 10:43:23;;;;;;;12.18;10.48;;;20.20;99.90;;;;;;5089248;28;20247;-40
2023/05/11 10:46:01;;;;;;;13.45;11.48;;;20.20;99.90;;;;;;5085799;28;20103;-41
2023/05/11 10:48:50;;;;;;;16.95;12.82;;;20.30;99.90;;;;;;5090036;28;20111;-40
2023/05/11 10:51:27;;;;;;;17.38;13.77;;;20.10;99.90;;;;;;5088051;28;20035;-39
2023/05/11 10:54:07;;;;;;;15.48;12.70;;;20.10;99.90;;;;;;5090341;28;20020;-42
2023/05/11 10:56:57;;;;;;;25.20;17.80;;;20.00;99.90;;;;;;5087366;28;20031;-41
2023/05/11 10:59:46;;;;;;;17.80;15.65;;;19.90;99.90;;;;;;5081018;28;20548;-41
2023/05/11 11:02:12;;;;;;;23.98;16.17;;;19.60;99.90;;;;;;5089910;28;20427;-40
2023/05/11 11:04:49;;;;;;;16.90;13.60;;;19.40;99.90;;;;;;5089367;28;20027;-40
2023/05/11 11:07:17;;;;;;;18.27;14.55;;;19.30;99.90;;;;;;5089405;28;20020;-40
2023/05/11 11:10:28;;;;;;;17.98;15.55;;;19.40;99.90;;;;;;5089874;28;20020;-40
2023/05/11 11:13:07;;;;;;;20.63;16.95;;;19.50;99.90;;;;;;5069670;28;20035;-40
2023/05/11 11:15:52;;;;;;;16.77;13.35;;;19.50;99.90;;;;;;5089652;28;20036;-40
2023/05/11 11:18:36;;;;;;;16.05;13.90;;;19.70;99.90;;;;;;5089738;28;20472;-41
2023/05/11 11:21:03;;;;;;;18.63;13.98;;;19.70;99.90;;;;;;5089487;28;20020;-39
2023/05/11 11:23:49;;;;;;;15.13;13.38;;;19.80;99.90;;;;;;5089813;28;20115;-40
2023/05/11 11:26:17;;;;;;;14.15;12.68;;;20.00;99.90;;;;;;5089736;28;20054;-41
2023/05/11 11:29:01;;;;;;;16.83;13.95;;;20.20;99.90;;;;;;5089434;28;20051;-40
2023/05/11 11:31:33;;;;;;;16.90;13.20;;;20.20;99.90;;;;;;5088972;28;20024;-42
2023/05/11 11:34:27;;;;;;;16.27;14.43;;;20.20;99.90;;;;;;5089474;28;20047;-41
2023/05/11 11:37:00;;;;;;;15.30;12.98;;;20.10;99.90;;;;;;5089683;28;20028;-41
2023/05/11 11:39:27;;;;;;;16.23;14.30;;;19.80;99.90;;;;;;5089403;28;20585;-41
2023/05/11 11:42:08;;;;;;;15.77;13.50;;;19.60;99.90;;;;;;5087385;28;20047;-40
2023/05/11 11:44:34;;;;;;;12.15;10.70;;;19.60;99.90;;;;;;5089272;28;20072;-42
2023/05/11 11:47:15;;;;;;;13.48;11.30;;;19.60;99.90;;;;;;5088892;28;20133;-41
2023/05/11 11:49:43;;;;;;;16.10;14.18;;;19.50;99.90;;;;;;5089519;28;20102;-41
2023/05/11 11:52:34;;;;;;;17.17;14.25;;;19.60;99.90;;;;;;5089023;28;20054;-40
2023/05/11 11:55:02;;;;;;;19.77;17.63;;;19.60;99.90;;;;;;5088886;28;20040;-40
2023/05/11 11:57:33;;;;;;;20.10;17.20;;;19.60;99.90;;;;;;5087555;28;20323;-41
2023/05/11 12:00:10;;;;;;;15.65;13.70;;;19.80;99.90;;;;;;5088883;28;20034;-40
2023/05/11 12:02:44;;;;;;;20.30;15.82;;;20.00;99.90;;;;;;5088694;28;20542;-40
2023/05/11 12:05:17;;;;;;;19.50;14.75;;;20.10;99.90;;;;;;5088883;28;20108;-41
2023/05/11 12:07:45;;;;;;;17.25;14.80;;;19.90;99.90;;;;;;5088896;28;20025;-41
2023/05/11 12:10:16;;;;;;;17.38;13.90;;;19.80;99.90;;;;;;5087647;28;20228;-40
2023/05/11 12:12:56;;;;;;;14.40;12.18;;;19.70;99.90;;;;;;5088059;28;20028;-41
2023/05/11 12:15:27;;;;;;;14.77;12.52;;;19.80;99.90;;;;;;5088938;28;20024;-41
2023/05/11 12:17:53;;;;;;;15.68;11.60;;;19.70;99.90;;;;;;5088070;28;20338;-41
2023/05/11 12:20:19;;;;;;;17.95;14.45;;;19.60;99.90;;;;;;5088638;28;20107;-41
2023/05/11 12:22:47;;;;;;;13.73;12.23;;;19.50;99.90;;;;;;5087931;28;20077;-40
2023/05/11 12:25:16;;;;;;;15.20;13.60;;;19.50;99.90;;;;;;5088652;28;20085;-41
2023/05/11 12:28:00;;;;;;;15.65;14.00;;;19.40;99.90;;;;;;5088839;28;20489;-41
2023/05/11 12:30:29;;;;;;;15.88;13.00;;;19.20;99.90;;;;;;5088420;28;20020;-40
2023/05/11 12:32:55;;;;;;;16.92;13.13;;;19.20;99.90;;;;;;5088240;28;20101;-40
2023/05/11 12:35:32;;;;;;;15.07;12.45;;;19.10;99.90;;;;;;5087263;28;20082;-41